createdAt,value
2016-11-03T00:00:09.233Z,958.30
2016-11-03T00:01:07.689Z,958.28
2016-11-03T00:02:07.379Z,958.31
2016-11-03T00:03:08.032Z,958.29
2016-11-03T00:04:07.625Z,958.25
2016-11-03T00:05:07.212Z,958.31
2016-11-03T00:06:07.859Z,958.31
2016-11-03T00:07:07.495Z,958.33
2016-11-03T00:08:08.164Z,958.36
2016-11-03T00:09:07.781Z,958.32
2016-11-03T00:10:07.440Z,958.31
2016-11-03T00:11:08.141Z,958.30
2016-11-03T00:12:07.765Z,958.31
2016-11-03T00:13:07.453Z,958.28
2016-11-03T00:14:08.051Z,958.32
2016-11-03T00:15:07.693Z,958.29
2016-11-03T00:16:07.344Z,958.35
2016-11-03T00:17:08.073Z,958.29
2016-11-03T00:18:07.888Z,958.30
2016-11-03T00:19:07.453Z,958.30
2016-11-03T00:20:08.194Z,958.32
2016-11-03T00:21:07.773Z,958.32
2016-11-03T00:22:07.410Z,958.33
2016-11-03T00:23:08.308Z,958.37
2016-11-03T00:24:07.957Z,958.35
2016-11-03T00:25:07.593Z,958.36
2016-11-03T00:26:08.169Z,958.38
2016-11-03T00:27:07.861Z,958.39
2016-11-03T00:28:07.520Z,958.38
2016-11-03T00:29:08.196Z,958.41
2016-11-03T00:30:07.806Z,958.42
2016-11-03T00:31:07.496Z,958.44
2016-11-03T00:32:08.123Z,958.39
2016-11-03T00:33:07.796Z,958.39
2016-11-03T00:34:07.450Z,958.38
2016-11-03T00:35:08.060Z,958.42
2016-11-03T00:36:07.660Z,958.41
2016-11-03T00:37:07.290Z,958.39
2016-11-03T00:38:08.041Z,958.42
2016-11-03T00:39:07.650Z,958.46
2016-11-03T00:40:07.269Z,958.47
2016-11-03T00:41:07.956Z,958.46
2016-11-03T00:42:07.701Z,958.50
2016-11-03T00:43:07.816Z,958.49
2016-11-03T00:44:07.974Z,958.49
2016-11-03T00:45:07.623Z,958.51
2016-11-03T00:46:07.252Z,958.51
2016-11-03T00:47:07.882Z,958.54
2016-11-03T00:48:07.574Z,958.54
2016-11-03T00:49:08.285Z,958.54
2016-11-03T00:50:07.918Z,958.55
2016-11-03T00:51:07.510Z,958.59
2016-11-03T00:52:08.115Z,958.51
2016-11-03T00:53:07.793Z,958.54
2016-11-03T00:54:07.391Z,958.50
2016-11-03T00:55:08.102Z,958.54
2016-11-03T00:56:07.685Z,958.56
2016-11-03T00:57:07.325Z,958.52
2016-11-03T00:58:08.007Z,958.52
2016-11-03T00:59:07.695Z,958.54
2016-11-03T01:00:07.335Z,958.56
2016-11-03T01:01:07.946Z,958.53
2016-11-03T01:02:07.622Z,958.59
2016-11-03T01:03:07.334Z,958.53
2016-11-03T01:04:07.968Z,958.60
2016-11-03T01:05:07.653Z,958.56
2016-11-03T01:06:08.181Z,958.53
2016-11-03T01:07:07.855Z,958.54
2016-11-03T01:08:07.522Z,958.56
2016-11-03T01:09:08.153Z,958.57
2016-11-03T01:10:07.839Z,958.53
2016-11-03T01:11:07.425Z,958.54
2016-11-03T01:12:08.054Z,958.59
2016-11-03T01:13:07.740Z,958.54
2016-11-03T01:14:07.349Z,958.58
2016-11-03T01:15:08.068Z,958.56
2016-11-03T01:16:07.671Z,958.58
2016-11-03T01:17:07.393Z,958.54
2016-11-03T01:18:08.148Z,958.55
2016-11-03T01:19:07.766Z,958.58
2016-11-03T01:20:07.435Z,958.53
2016-11-03T01:21:09.163Z,958.52
2016-11-03T01:22:07.781Z,958.53
2016-11-03T01:23:07.374Z,958.52
2016-11-03T01:24:08.043Z,958.52
2016-11-03T01:25:07.630Z,958.51
2016-11-03T01:26:07.211Z,958.51
2016-11-03T01:27:07.880Z,958.49
2016-11-03T01:28:07.483Z,958.44
2016-11-03T01:29:08.180Z,958.47
2016-11-03T01:30:07.903Z,958.48
2016-11-03T01:31:09.003Z,958.49
2016-11-03T01:32:08.869Z,958.52
2016-11-03T01:33:07.445Z,958.48
2016-11-03T01:34:08.100Z,958.51
2016-11-03T01:35:07.772Z,958.52
2016-11-03T01:36:07.385Z,958.53
2016-11-03T01:37:08.032Z,958.48
2016-11-03T01:38:07.713Z,958.51
2016-11-03T01:39:07.344Z,958.53
2016-11-03T01:40:08.022Z,958.51
2016-11-03T01:41:07.638Z,958.53
2016-11-03T01:42:07.235Z,958.50
2016-11-03T01:43:07.878Z,958.53
2016-11-03T01:44:07.627Z,958.55
2016-11-03T01:45:07.294Z,958.54
2016-11-03T01:46:07.863Z,958.60
2016-11-03T01:47:07.507Z,958.56
2016-11-03T01:48:08.231Z,958.58
2016-11-03T01:49:07.902Z,958.60
2016-11-03T01:50:08.161Z,958.65
2016-11-03T01:51:08.190Z,958.60
2016-11-03T01:52:07.820Z,958.62
2016-11-03T01:53:07.449Z,958.67
2016-11-03T01:54:08.087Z,958.65
2016-11-03T01:55:07.760Z,958.63
2016-11-03T01:56:07.332Z,958.65
2016-11-03T01:57:07.993Z,958.64
2016-11-03T01:58:07.612Z,958.63
2016-11-03T01:59:08.172Z,958.63
2016-11-03T02:00:07.874Z,958.63
2016-11-03T02:01:07.531Z,958.61
2016-11-03T02:02:08.186Z,958.64
2016-11-03T02:03:07.866Z,958.70
2016-11-03T02:04:07.471Z,958.65
2016-11-03T02:05:08.152Z,958.69
2016-11-03T02:06:07.724Z,958.70
2016-11-03T02:07:07.394Z,958.69
2016-11-03T02:08:08.064Z,958.68
2016-11-03T02:09:07.671Z,958.73
2016-11-03T02:10:07.428Z,958.71
2016-11-03T02:11:08.125Z,958.63
2016-11-03T02:12:07.752Z,958.70
2016-11-03T02:13:07.365Z,958.72
2016-11-03T02:14:08.048Z,958.71
2016-11-03T02:15:07.673Z,958.75
2016-11-03T02:16:07.336Z,958.76
2016-11-03T02:17:08.033Z,958.75
2016-11-03T02:18:07.799Z,958.71
2016-11-03T02:19:07.441Z,958.72
2016-11-03T02:20:08.101Z,958.77
2016-11-03T02:21:07.693Z,958.77
2016-11-03T02:22:07.313Z,958.73
2016-11-03T02:23:08.003Z,958.75
2016-11-03T02:24:07.593Z,958.75
2016-11-03T02:25:07.303Z,958.77
2016-11-03T02:26:07.914Z,958.77
2016-11-03T02:27:07.621Z,958.77
2016-11-03T02:28:07.295Z,958.77
2016-11-03T02:29:07.922Z,958.81
2016-11-03T02:30:10.097Z,958.78
2016-11-03T02:31:08.220Z,958.76
2016-11-03T02:32:07.822Z,958.75
2016-11-03T02:33:07.556Z,958.74
2016-11-03T02:34:08.197Z,958.73
2016-11-03T02:35:07.912Z,958.68
2016-11-03T02:36:07.513Z,958.72
2016-11-03T02:37:08.162Z,958.70
2016-11-03T02:38:08.324Z,958.65
2016-11-03T02:39:07.415Z,958.66
2016-11-03T02:40:08.093Z,958.70
2016-11-03T02:41:07.635Z,958.70
2016-11-03T02:42:07.262Z,958.68
2016-11-03T02:43:08.013Z,958.65
2016-11-03T02:44:07.640Z,958.72
2016-11-03T02:45:13.116Z,958.71
2016-11-03T02:46:07.990Z,958.68
2016-11-03T02:47:07.616Z,958.65
2016-11-03T02:48:08.254Z,958.66
2016-11-03T02:49:07.860Z,958.62
2016-11-03T02:50:07.991Z,958.63
2016-11-03T02:51:08.196Z,958.59
2016-11-03T02:52:13.334Z,958.61
2016-11-03T02:53:07.439Z,958.67
2016-11-03T02:54:08.098Z,958.65
2016-11-03T02:55:07.722Z,958.58
2016-11-03T02:56:07.411Z,958.65
2016-11-03T02:57:08.009Z,958.62
2016-11-03T02:58:07.683Z,958.59
2016-11-03T02:59:13.998Z,958.61
2016-11-03T03:00:07.994Z,958.69
2016-11-03T03:01:07.743Z,958.68
2016-11-03T03:02:07.221Z,958.71
2016-11-03T03:03:07.957Z,958.79
2016-11-03T03:04:07.562Z,958.76
2016-11-03T03:05:08.217Z,958.79
2016-11-03T03:06:07.918Z,958.81
2016-11-03T03:07:07.539Z,958.84
2016-11-03T03:08:08.139Z,958.78
2016-11-03T03:09:07.811Z,958.73
2016-11-03T03:10:07.474Z,958.76
2016-11-03T03:11:08.232Z,958.75
2016-11-03T03:12:07.759Z,958.75
2016-11-03T03:13:07.401Z,958.76
2016-11-03T03:14:14.610Z,958.76
2016-11-03T03:15:07.704Z,958.75
2016-11-03T03:16:07.412Z,958.72
2016-11-03T03:17:08.051Z,958.74
2016-11-03T03:18:07.826Z,958.77
2016-11-03T03:19:07.514Z,958.77
2016-11-03T03:20:13.715Z,958.75
2016-11-03T03:21:07.803Z,958.78
2016-11-03T03:22:07.505Z,958.77
2016-11-03T03:23:08.192Z,958.80
2016-11-03T03:24:07.730Z,958.83
2016-11-03T03:25:07.976Z,958.80
2016-11-03T03:26:08.185Z,958.83
2016-11-03T03:27:07.679Z,958.78
2016-11-03T03:28:07.367Z,958.85
2016-11-03T03:29:08.000Z,958.80
2016-11-03T03:30:07.648Z,958.84
2016-11-03T03:31:07.302Z,958.83
2016-11-03T03:32:08.037Z,958.84
2016-11-03T03:33:07.648Z,958.82
2016-11-03T03:34:07.255Z,958.84
2016-11-03T03:35:07.987Z,958.89
2016-11-03T03:36:07.584Z,958.88
2016-11-03T03:37:08.197Z,958.88
2016-11-03T03:38:07.829Z,958.91
2016-11-03T03:39:07.479Z,958.94
2016-11-03T03:40:08.221Z,958.99
2016-11-03T03:41:07.817Z,958.98
2016-11-03T03:42:07.494Z,958.96
2016-11-03T03:43:08.065Z,958.97
2016-11-03T03:44:07.750Z,959.00
2016-11-03T03:45:07.424Z,959.01
2016-11-03T03:46:09.157Z,958.95
2016-11-03T03:47:07.688Z,958.99
2016-11-03T03:48:07.395Z,959.04
2016-11-03T03:49:08.002Z,959.03
2016-11-03T03:50:07.642Z,959.03
2016-11-03T03:51:07.283Z,959.02
2016-11-03T03:52:07.898Z,959.03
2016-11-03T03:53:07.477Z,959.00
2016-11-03T03:54:08.128Z,959.03
2016-11-03T03:55:07.772Z,959.02
2016-11-03T03:56:07.429Z,959.04
2016-11-03T03:57:08.149Z,959.03
2016-11-03T03:58:07.752Z,959.04
2016-11-03T03:59:08.536Z,959.05
2016-11-03T04:00:08.075Z,959.03
2016-11-03T04:01:07.754Z,959.06
2016-11-03T04:02:07.376Z,959.08
2016-11-03T04:03:08.019Z,959.06
2016-11-03T04:04:07.641Z,959.07
2016-11-03T04:05:07.287Z,959.08
2016-11-03T04:06:07.907Z,959.08
2016-11-03T04:07:08.254Z,959.13
2016-11-03T04:08:08.230Z,959.15
2016-11-03T04:09:07.970Z,959.15
2016-11-03T04:10:07.524Z,959.19
2016-11-03T04:11:08.186Z,959.17
2016-11-03T04:12:07.804Z,959.21
2016-11-03T04:13:07.450Z,959.26
2016-11-03T04:14:08.068Z,959.20
2016-11-03T04:15:07.692Z,959.19
2016-11-03T04:16:07.446Z,959.16
2016-11-03T04:17:07.614Z,959.17
2016-11-03T04:18:08.421Z,959.20
2016-11-03T04:19:07.902Z,959.19
2016-11-03T04:20:07.571Z,959.20
2016-11-03T04:21:08.221Z,959.19
2016-11-03T04:22:07.883Z,959.23
2016-11-03T04:23:07.530Z,959.18
2016-11-03T04:24:08.161Z,959.21
2016-11-03T04:25:07.824Z,959.23
2016-11-03T04:26:07.393Z,959.23
2016-11-03T04:27:08.105Z,959.21
2016-11-03T04:28:07.714Z,959.20
2016-11-03T04:29:07.410Z,959.21
2016-11-03T04:30:08.079Z,959.20
2016-11-03T04:31:07.746Z,959.22
2016-11-03T04:32:08.428Z,959.17
2016-11-03T04:33:07.947Z,959.20
2016-11-03T04:34:07.612Z,959.16
2016-11-03T04:35:08.158Z,959.18
2016-11-03T04:36:07.821Z,959.20
2016-11-03T04:37:07.475Z,959.19
2016-11-03T04:38:08.178Z,959.18
2016-11-03T04:39:07.710Z,959.16
2016-11-03T04:40:07.393Z,959.17
2016-11-03T04:41:08.065Z,959.17
2016-11-03T04:42:07.697Z,959.15
2016-11-03T04:43:07.409Z,959.15
2016-11-03T04:44:07.990Z,959.16
2016-11-03T04:45:07.648Z,959.12
2016-11-03T04:46:07.326Z,959.09
2016-11-03T04:47:07.976Z,959.15
2016-11-03T04:48:07.649Z,959.15
2016-11-03T04:49:07.256Z,959.14
2016-11-03T04:50:07.869Z,959.12
2016-11-03T04:51:07.521Z,959.12
2016-11-03T04:52:08.171Z,959.13
2016-11-03T04:53:07.858Z,959.17
2016-11-03T04:54:07.449Z,959.17
2016-11-03T04:55:08.101Z,959.18
2016-11-03T04:56:07.719Z,959.19
2016-11-03T04:57:07.379Z,959.14
2016-11-03T04:58:08.109Z,959.18
2016-11-03T04:59:07.700Z,959.21
2016-11-03T05:00:07.388Z,959.17
2016-11-03T05:01:08.010Z,959.23
2016-11-03T05:02:07.659Z,959.17
2016-11-03T05:03:07.385Z,959.24
2016-11-03T05:04:07.999Z,959.26
2016-11-03T05:05:07.641Z,959.24
2016-11-03T05:06:07.244Z,959.24
2016-11-03T05:07:07.909Z,959.22
2016-11-03T05:08:07.603Z,959.22
2016-11-03T05:09:08.236Z,959.20
2016-11-03T05:10:07.787Z,959.22
2016-11-03T05:11:07.467Z,959.21
2016-11-03T05:12:08.092Z,959.19
2016-11-03T05:13:07.847Z,959.22
2016-11-03T05:14:07.595Z,959.21
2016-11-03T05:15:08.126Z,959.18
2016-11-03T05:16:07.738Z,959.18
2016-11-03T05:17:07.425Z,959.20
2016-11-03T05:18:08.286Z,959.20
2016-11-03T05:19:07.869Z,959.25
2016-11-03T05:20:08.559Z,959.23
2016-11-03T05:21:08.170Z,959.27
2016-11-03T05:22:07.817Z,959.22
2016-11-03T05:23:07.417Z,959.24
2016-11-03T05:24:08.111Z,959.25
2016-11-03T05:25:10.309Z,959.27
2016-11-03T05:26:09.246Z,959.26
2016-11-03T05:27:07.828Z,959.31
2016-11-03T05:28:07.398Z,959.29
2016-11-03T05:29:08.109Z,959.30
2016-11-03T05:30:07.785Z,959.36
2016-11-03T05:31:07.468Z,959.42
2016-11-03T05:32:09.118Z,959.42
2016-11-03T05:33:07.759Z,959.44
2016-11-03T05:34:07.407Z,959.44
2016-11-03T05:35:08.014Z,959.46
2016-11-03T05:36:09.148Z,959.42
2016-11-03T05:37:07.313Z,959.48
2016-11-03T05:38:07.981Z,959.47
2016-11-03T05:39:07.624Z,959.49
2016-11-03T05:40:08.203Z,959.50
2016-11-03T05:41:07.850Z,959.55
2016-11-03T05:42:07.536Z,959.53
2016-11-03T05:43:08.146Z,959.56
2016-11-03T05:44:07.810Z,959.60
2016-11-03T05:45:07.392Z,959.64
2016-11-03T05:46:08.069Z,959.60
2016-11-03T05:47:14.184Z,959.61
2016-11-03T05:48:07.437Z,959.60
2016-11-03T05:49:08.060Z,959.67
2016-11-03T05:50:07.673Z,959.66
2016-11-03T05:51:07.291Z,959.64
2016-11-03T05:52:08.050Z,959.66
2016-11-03T05:53:07.617Z,959.65
2016-11-03T05:54:07.245Z,959.69
2016-11-03T05:55:07.871Z,959.67
2016-11-03T05:56:07.574Z,959.72
2016-11-03T05:57:08.175Z,959.71
2016-11-03T05:58:07.782Z,959.68
2016-11-03T05:59:07.555Z,959.71
2016-11-03T06:00:09.151Z,959.75
2016-11-03T06:01:07.796Z,959.73
2016-11-03T06:02:07.549Z,959.77
2016-11-03T06:03:08.197Z,959.77
2016-11-03T06:04:07.848Z,959.78
2016-11-03T06:05:07.422Z,959.78
2016-11-03T06:06:08.080Z,959.80
2016-11-03T06:07:07.692Z,959.84
2016-11-03T06:08:07.347Z,959.81
2016-11-03T06:09:08.039Z,959.82
2016-11-03T06:10:07.699Z,959.85
2016-11-03T06:11:07.284Z,959.88
2016-11-03T06:12:07.944Z,959.89
2016-11-03T06:13:07.653Z,959.85
2016-11-03T06:14:07.305Z,959.91
2016-11-03T06:15:07.902Z,959.88
2016-11-03T06:16:07.592Z,959.89
2016-11-03T06:17:07.372Z,959.90
2016-11-03T06:18:08.312Z,959.88
2016-11-03T06:19:07.785Z,959.92
2016-11-03T06:20:07.389Z,959.94
2016-11-03T06:21:08.013Z,959.93
2016-11-03T06:22:07.672Z,959.95
2016-11-03T06:23:07.283Z,959.95
2016-11-03T06:24:08.010Z,959.95
2016-11-03T06:25:07.575Z,959.99
2016-11-03T06:26:07.281Z,960.01
2016-11-03T06:27:07.940Z,960.05
2016-11-03T06:28:07.552Z,960.04
2016-11-03T06:29:08.235Z,960.06
2016-11-03T06:30:08.445Z,960.05
2016-11-03T06:31:07.464Z,960.08
2016-11-03T06:32:08.095Z,960.08
2016-11-03T06:33:07.703Z,960.07
2016-11-03T06:34:07.414Z,960.06
2016-11-03T06:35:08.017Z,960.08
2016-11-03T06:36:07.673Z,960.09
2016-11-03T06:37:07.304Z,960.10
2016-11-03T06:38:07.926Z,960.08
2016-11-03T06:39:07.618Z,960.07
2016-11-03T06:40:08.197Z,960.09
2016-11-03T06:41:08.362Z,960.11
2016-11-03T06:42:07.475Z,960.11
2016-11-03T06:43:08.133Z,960.11
2016-11-03T06:44:07.838Z,960.13
2016-11-03T06:45:07.449Z,960.08
2016-11-03T06:46:08.051Z,960.11
2016-11-03T06:47:07.694Z,960.12
2016-11-03T06:48:07.779Z,960.10
2016-11-03T06:49:14.516Z,960.11
2016-11-03T06:50:07.710Z,960.16
2016-11-03T06:51:07.404Z,960.13
2016-11-03T06:52:10.096Z,960.17
2016-11-03T06:53:07.672Z,960.20
2016-11-03T06:54:07.674Z,960.19
2016-11-03T06:55:07.990Z,960.18
2016-11-03T06:56:08.169Z,960.22
2016-11-03T06:57:07.234Z,960.27
2016-11-03T06:58:07.843Z,960.27
2016-11-03T06:59:07.578Z,960.27
2016-11-03T07:00:09.490Z,960.30
2016-11-03T07:01:07.928Z,960.31
2016-11-03T07:02:08.907Z,960.34
2016-11-03T07:03:08.151Z,960.31
2016-11-03T07:04:07.816Z,960.30
2016-11-03T07:05:07.387Z,960.35
2016-11-03T07:06:08.009Z,960.33
2016-11-03T07:07:07.644Z,960.32
2016-11-03T07:08:09.928Z,960.33
2016-11-03T07:09:08.025Z,960.39
2016-11-03T07:10:07.527Z,960.34
2016-11-03T07:11:08.137Z,960.36
2016-11-03T07:12:07.968Z,960.37
2016-11-03T07:13:07.429Z,960.39
2016-11-03T07:14:08.095Z,960.39
2016-11-03T07:15:07.684Z,960.43
2016-11-03T07:16:07.333Z,960.43
2016-11-03T07:17:08.088Z,960.37
2016-11-03T07:18:07.807Z,960.44
2016-11-03T07:19:07.537Z,960.45
2016-11-03T07:20:08.093Z,960.44
2016-11-03T07:21:07.763Z,960.40
2016-11-03T07:22:07.316Z,960.47
2016-11-03T07:23:07.966Z,960.44
2016-11-03T07:24:07.626Z,960.46
2016-11-03T07:25:07.227Z,960.47
2016-11-03T07:26:07.898Z,960.44
2016-11-03T07:27:07.516Z,960.45
2016-11-03T07:28:08.177Z,960.45
2016-11-03T07:29:07.895Z,960.45
2016-11-03T07:30:07.520Z,960.44
2016-11-03T07:31:08.198Z,960.44
2016-11-03T07:32:07.820Z,960.50
2016-11-03T07:33:07.503Z,960.47
2016-11-03T07:34:08.288Z,960.50
2016-11-03T07:35:07.838Z,960.48
2016-11-03T07:36:07.488Z,960.46
2016-11-03T07:37:08.105Z,960.46
2016-11-03T07:38:07.828Z,960.47
2016-11-03T07:39:14.971Z,960.55
2016-11-03T07:40:08.086Z,960.51
2016-11-03T07:41:07.675Z,960.54
2016-11-03T07:42:07.364Z,960.55
2016-11-03T07:43:07.940Z,960.57
2016-11-03T07:44:07.664Z,960.50
2016-11-03T07:45:07.334Z,960.56
2016-11-03T07:46:07.931Z,960.48
2016-11-03T07:47:07.571Z,960.55
2016-11-03T07:48:07.259Z,960.60
2016-11-03T07:49:08.079Z,960.54
2016-11-03T07:50:07.549Z,960.63
2016-11-03T07:51:08.151Z,960.59
2016-11-03T07:52:07.887Z,960.66
2016-11-03T07:53:07.503Z,960.64
2016-11-03T07:54:08.151Z,960.62
2016-11-03T07:55:07.781Z,960.63
2016-11-03T07:56:07.376Z,960.58
2016-11-03T07:57:07.999Z,960.59
2016-11-03T07:58:07.699Z,960.63
2016-11-03T07:59:07.408Z,960.63
2016-11-03T08:00:08.024Z,960.67
2016-11-03T08:01:07.656Z,960.54
2016-11-03T08:02:07.313Z,960.57
2016-11-03T08:03:07.888Z,960.57
2016-11-03T08:04:07.695Z,960.61
2016-11-03T08:05:08.196Z,960.61
2016-11-03T08:06:07.884Z,960.67
2016-11-03T08:07:07.440Z,960.60
2016-11-03T08:08:08.108Z,960.63
2016-11-03T08:09:07.794Z,960.67
2016-11-03T08:10:07.428Z,960.66
2016-11-03T08:11:08.038Z,960.67
2016-11-03T08:12:07.671Z,960.64
2016-11-03T08:13:14.045Z,960.69
2016-11-03T08:14:09.169Z,960.64
2016-11-03T08:15:07.705Z,960.68
2016-11-03T08:16:07.856Z,960.71
2016-11-03T08:17:08.084Z,960.74
2016-11-03T08:18:07.831Z,960.74
2016-11-03T08:19:07.498Z,960.71
2016-11-03T08:20:08.160Z,960.70
2016-11-03T08:21:07.756Z,960.72
2016-11-03T08:22:07.449Z,960.74
2016-11-03T08:23:08.050Z,960.73
2016-11-03T08:24:07.846Z,960.68
2016-11-03T08:25:07.510Z,960.71
2016-11-03T08:26:08.125Z,960.74
2016-11-03T08:27:07.840Z,960.73
2016-11-03T08:28:07.913Z,960.72
2016-11-03T08:29:08.040Z,960.76
2016-11-03T08:30:07.683Z,960.75
2016-11-03T08:31:07.823Z,960.73
2016-11-03T08:32:07.941Z,960.76
2016-11-03T08:33:07.579Z,960.74
2016-11-03T08:34:07.313Z,960.74
2016-11-03T08:35:07.950Z,960.77
2016-11-03T08:36:08.649Z,960.77
2016-11-03T08:37:08.157Z,960.77
2016-11-03T08:38:07.841Z,960.76
2016-11-03T08:39:07.466Z,960.80
2016-11-03T08:40:08.179Z,960.77
2016-11-03T08:41:07.845Z,960.80
2016-11-03T08:42:07.419Z,960.81
2016-11-03T08:43:08.123Z,960.77
2016-11-03T08:44:07.765Z,960.82
2016-11-03T08:45:08.504Z,960.82
2016-11-03T08:46:08.042Z,960.81
2016-11-03T08:47:07.711Z,960.80
2016-11-03T08:48:07.364Z,960.81
2016-11-03T08:49:08.058Z,960.81
2016-11-03T08:50:07.736Z,960.84
2016-11-03T08:51:07.329Z,960.84
2016-11-03T08:52:07.933Z,960.86
2016-11-03T08:53:07.574Z,960.85
2016-11-03T08:54:07.196Z,960.86
2016-11-03T08:55:07.859Z,960.82
2016-11-03T08:56:07.584Z,960.84
2016-11-03T08:57:08.153Z,960.81
2016-11-03T08:58:07.834Z,960.82
2016-11-03T08:59:07.455Z,960.86
2016-11-03T09:00:08.115Z,960.91
2016-11-03T09:01:07.787Z,960.82
2016-11-03T09:02:07.790Z,960.84
2016-11-03T09:03:07.436Z,960.88
2016-11-03T09:04:08.176Z,960.90
2016-11-03T09:05:07.756Z,960.87
2016-11-03T09:06:07.455Z,960.95
2016-11-03T09:07:08.132Z,960.88
2016-11-03T09:08:07.741Z,960.87
2016-11-03T09:09:07.361Z,960.91
2016-11-03T09:10:08.063Z,960.95
2016-11-03T09:11:07.767Z,960.93
2016-11-03T09:12:07.408Z,960.87
2016-11-03T09:13:08.022Z,960.91
2016-11-03T09:14:07.656Z,960.85
2016-11-03T09:15:07.302Z,960.90
2016-11-03T09:16:08.043Z,960.91
2016-11-03T09:17:07.702Z,960.98
2016-11-03T09:18:07.438Z,960.90
2016-11-03T09:19:08.209Z,960.96
2016-11-03T09:20:07.808Z,960.93
2016-11-03T09:21:07.478Z,960.94
2016-11-03T09:22:08.083Z,960.96
2016-11-03T09:23:07.681Z,960.95
2016-11-03T09:24:07.333Z,961.00
2016-11-03T09:25:08.004Z,961.01
2016-11-03T09:26:07.696Z,961.00
2016-11-03T09:27:07.447Z,961.02
2016-11-03T09:28:09.034Z,961.03
2016-11-03T09:29:07.612Z,961.00
2016-11-03T09:30:07.241Z,961.01
2016-11-03T09:31:07.908Z,961.00
2016-11-03T09:32:07.588Z,960.98
2016-11-03T09:33:07.221Z,960.97
2016-11-03T09:34:07.892Z,961.02
2016-11-03T09:35:08.290Z,961.03
2016-11-03T09:36:07.256Z,960.99
2016-11-03T09:37:07.909Z,961.00
2016-11-03T09:38:07.548Z,960.99
2016-11-03T09:39:08.197Z,961.03
2016-11-03T09:40:07.821Z,961.00
2016-11-03T09:41:07.535Z,960.99
2016-11-03T09:42:07.306Z,960.96
2016-11-03T09:43:07.881Z,960.95
2016-11-03T09:44:07.507Z,960.94
2016-11-03T09:45:08.188Z,960.97
2016-11-03T09:46:07.834Z,960.96
2016-11-03T09:47:07.441Z,960.94
2016-11-03T09:48:08.107Z,960.91
2016-11-03T09:49:07.802Z,960.91
2016-11-03T09:50:07.448Z,960.85
2016-11-03T09:51:08.118Z,960.89
2016-11-03T09:52:07.743Z,960.86
2016-11-03T09:53:07.405Z,960.92
2016-11-03T09:54:08.081Z,960.88
2016-11-03T09:55:07.712Z,960.86
2016-11-03T09:56:07.459Z,960.90
2016-11-03T09:57:08.020Z,960.87
2016-11-03T09:58:07.652Z,960.85
2016-11-03T09:59:07.418Z,960.89
2016-11-03T10:00:08.029Z,960.85
2016-11-03T10:01:07.661Z,960.81
2016-11-03T10:02:07.332Z,960.84
2016-11-03T10:03:07.986Z,960.86
2016-11-03T10:04:08.135Z,960.87
2016-11-03T10:05:07.297Z,960.84
2016-11-03T10:06:07.916Z,960.85
2016-11-03T10:07:07.511Z,960.82
2016-11-03T10:08:07.202Z,960.81
2016-11-03T10:09:07.951Z,960.86
2016-11-03T10:10:07.500Z,960.86
2016-11-03T10:11:08.213Z,960.89
2016-11-03T10:12:07.955Z,960.82
2016-11-03T10:13:07.655Z,960.83
2016-11-03T10:14:07.423Z,960.82
2016-11-03T10:15:07.916Z,960.80
2016-11-03T10:16:08.698Z,960.81
2016-11-03T10:17:08.386Z,960.79
2016-11-03T10:18:08.028Z,960.78
2016-11-03T10:19:07.735Z,960.74
2016-11-03T10:20:07.588Z,960.81
2016-11-03T10:21:07.973Z,960.77
2016-11-03T10:22:07.601Z,960.77
2016-11-03T10:23:07.212Z,960.79
2016-11-03T10:24:07.879Z,960.75
2016-11-03T10:25:07.572Z,960.75
2016-11-03T10:26:07.467Z,960.74
2016-11-03T10:27:07.978Z,960.75
2016-11-03T10:28:07.821Z,960.74
2016-11-03T10:29:08.276Z,960.76
2016-11-03T10:30:07.939Z,960.75
2016-11-03T10:31:07.510Z,960.77
2016-11-03T10:32:08.433Z,960.76
2016-11-03T10:33:07.862Z,960.77
2016-11-03T10:34:07.502Z,960.73
2016-11-03T10:35:08.161Z,960.72
2016-11-03T10:36:07.869Z,960.74
2016-11-03T10:37:07.435Z,960.69
2016-11-03T10:38:08.085Z,960.74
2016-11-03T10:39:07.740Z,960.72
2016-11-03T10:40:07.393Z,960.75
2016-11-03T10:41:08.084Z,960.72
2016-11-03T10:42:07.771Z,960.72
2016-11-03T10:43:14.384Z,960.70
2016-11-03T10:44:08.026Z,960.68
2016-11-03T10:45:07.664Z,960.67
2016-11-03T10:46:07.323Z,960.64
2016-11-03T10:47:07.896Z,960.69
2016-11-03T10:48:07.636Z,960.68
2016-11-03T10:49:07.234Z,960.67
2016-11-03T10:50:07.858Z,960.65
2016-11-03T10:51:07.554Z,960.70
2016-11-03T10:52:08.108Z,960.72
2016-11-03T10:53:07.792Z,960.68
2016-11-03T10:54:07.395Z,960.69
2016-11-03T10:55:08.144Z,960.69
2016-11-03T10:56:07.737Z,960.67
2016-11-03T10:57:07.381Z,960.63
2016-11-03T10:58:08.077Z,960.67
2016-11-03T10:59:07.667Z,960.65
2016-11-03T11:00:07.282Z,960.63
2016-11-03T11:01:07.945Z,960.62
2016-11-03T11:02:07.631Z,960.63
2016-11-03T11:03:07.283Z,960.62
2016-11-03T11:04:07.938Z,960.59
2016-11-03T11:05:07.559Z,960.57
2016-11-03T11:06:08.220Z,960.61
2016-11-03T11:07:07.810Z,960.58
2016-11-03T11:08:07.572Z,960.57
2016-11-03T11:09:08.145Z,960.56
2016-11-03T11:10:07.688Z,960.50
2016-11-03T11:11:08.399Z,960.51
2016-11-03T11:12:15.277Z,960.50
2016-11-03T11:13:08.031Z,960.51
2016-11-03T11:14:07.778Z,960.47
2016-11-03T11:15:07.414Z,960.48
2016-11-03T11:16:08.172Z,960.44
2016-11-03T11:17:08.005Z,960.45
2016-11-03T11:18:07.750Z,960.44
2016-11-03T11:19:07.423Z,960.43
2016-11-03T11:20:08.165Z,960.45
2016-11-03T11:21:08.069Z,960.41
2016-11-03T11:22:07.831Z,960.40
2016-11-03T11:23:07.615Z,960.34
2016-11-03T11:24:08.356Z,960.35
2016-11-03T11:25:08.373Z,960.30
2016-11-03T11:26:08.079Z,960.29
2016-11-03T11:27:07.829Z,960.29
2016-11-03T11:28:07.495Z,960.29
2016-11-03T11:29:08.334Z,960.31
2016-11-03T11:30:07.860Z,960.24
2016-11-03T11:31:08.056Z,960.25
2016-11-03T11:32:07.495Z,960.22
2016-11-03T11:33:08.194Z,960.19
2016-11-03T11:34:08.070Z,960.19
2016-11-03T11:35:08.994Z,960.22
2016-11-03T11:36:07.718Z,960.16
2016-11-03T11:37:08.145Z,960.15
2016-11-03T11:38:07.928Z,960.17
2016-11-03T11:39:08.008Z,960.17
2016-11-03T11:40:07.863Z,960.17
2016-11-03T11:41:07.606Z,960.17
2016-11-03T11:42:08.597Z,960.16
2016-11-03T11:43:07.600Z,960.16
2016-11-03T11:44:08.302Z,960.09
2016-11-03T11:45:08.040Z,960.13
2016-11-03T11:46:07.756Z,960.12
2016-11-03T11:47:07.397Z,960.08
2016-11-03T11:48:08.206Z,960.08
2016-11-03T11:49:07.863Z,960.16
2016-11-03T11:50:07.567Z,960.10
2016-11-03T11:51:08.107Z,960.10
2016-11-03T11:52:08.317Z,960.09
2016-11-03T11:53:07.741Z,960.14
2016-11-03T11:54:08.496Z,960.08
2016-11-03T11:55:08.362Z,960.10
2016-11-03T11:56:08.221Z,960.17
2016-11-03T11:57:08.136Z,960.09
2016-11-03T11:58:07.953Z,960.11
2016-11-03T11:59:08.431Z,960.10
2016-11-03T12:00:08.159Z,960.12
2016-11-03T12:01:08.009Z,960.06
2016-11-03T12:02:07.722Z,960.13
2016-11-03T12:03:09.068Z,960.11
2016-11-03T12:04:07.904Z,960.10
2016-11-03T12:05:07.567Z,960.07
2016-11-03T12:06:17.750Z,960.10
2016-11-03T12:07:07.426Z,960.02
2016-11-03T12:08:08.186Z,960.06
2016-11-03T12:09:08.307Z,959.97
2016-11-03T12:10:08.349Z,959.99
2016-11-03T12:11:08.015Z,960.01
2016-11-03T12:12:08.201Z,960.00
2016-11-03T12:13:07.925Z,960.00
2016-11-03T12:14:07.725Z,959.98
2016-11-03T12:15:08.526Z,959.98
2016-11-03T12:16:08.473Z,960.03
2016-11-03T12:17:08.406Z,959.98
2016-11-03T12:18:07.407Z,959.95
2016-11-03T12:19:08.207Z,959.97
2016-11-03T12:20:08.367Z,959.94
2016-11-03T12:21:08.142Z,959.91
2016-11-03T12:22:07.781Z,959.90
2016-11-03T12:23:07.396Z,959.93
2016-11-03T12:24:08.036Z,959.94
2016-11-03T12:25:07.848Z,959.89
2016-11-03T12:26:08.394Z,959.82
2016-11-03T12:27:08.074Z,959.81
2016-11-03T12:28:07.814Z,959.83